Time;durP1;ratioP1;P1;durP2;ratioP2;P2;SDS_P1;SDS_P2;PMS_P1;PMS_P2;Temp;Humidity;BMP_temperature;BMP_pressure;BME280_temperature;BME280_humidity;BME280_pressure;Samples;Min_cycle;Max_cycle;Signal;HPM_P1;HPM_P2
2023/08/19 00:01:07;;;;;;;31.83;23.77;;;20.00;99.90;;;;;;4963037;28;20042;-78
2023/08/19 00:03:33;;;;;;;26.30;23.15;;;20.10;99.90;;;;;;4945189;28;20042;-78
2023/08/19 00:06:35;;;;;;;27.27;23.48;;;20.00;99.90;;;;;;4956549;28;20043;-78
2023/08/19 00:09:04;;;;;;;28.85;22.98;;;20.00;99.90;;;;;;4925795;28;20385;-79
2023/08/19 00:11:33;;;;;;;27.23;23.15;;;20.00;99.90;;;;;;4975169;28;20569;-79
2023/08/19 00:13:59;;;;;;;27.50;23.33;;;20.00;99.90;;;;;;4957156;28;20542;-78
2023/08/19 00:16:25;;;;;;;29.13;24.58;;;20.00;99.90;;;;;;4974513;28;20043;-78
2023/08/19 00:18:51;;;;;;;28.40;23.40;;;20.00;99.90;;;;;;4954387;28;20032;-79
2023/08/19 00:21:16;;;;;;;26.75;23.65;;;20.00;99.90;;;;;;4943008;28;20089;-79
2023/08/19 00:23:43;;;;;;;24.95;21.92;;;20.00;99.90;;;;;;4955595;28;20097;-78
2023/08/19 00:26:11;;;;;;;25.67;22.05;;;20.00;99.90;;;;;;4944346;28;21044;-79
2023/08/19 00:28:38;;;;;;;29.60;22.15;;;20.00;99.90;;;;;;4961412;28;20035;-79
2023/08/19 00:31:03;;;;;;;26.58;22.60;;;20.10;99.90;;;;;;4959010;28;20108;-78
2023/08/19 00:33:29;;;;;;;27.67;23.27;;;20.00;99.90;;;;;;4955322;28;20250;-79
2023/08/19 00:35:55;;;;;;;23.90;20.85;;;20.10;99.90;;;;;;4942315;28;20050;-79
2023/08/19 00:38:21;;;;;;;24.92;22.02;;;20.00;99.90;;;;;;4956387;28;20339;-78
2023/08/19 00:40:46;;;;;;;24.58;21.88;;;20.10;99.90;;;;;;4956333;28;20054;-79
2023/08/19 00:43:12;;;;;;;26.75;20.45;;;20.10;99.90;;;;;;4955507;28;20043;-78
2023/08/19 00:45:42;;;;;;;24.50;21.85;;;20.00;99.90;;;;;;4957826;28;20271;-79
2023/08/19 00:48:08;;;;;;;28.80;22.40;;;20.10;99.90;;;;;;4959839;28;20248;-78
2023/08/19 00:50:35;;;;;;;23.98;20.23;;;20.10;99.90;;;;;;4954038;28;20039;-79
2023/08/19 00:53:04;;;;;;;27.45;21.80;;;20.00;99.90;;;;;;4956817;28;20499;-78
2023/08/19 00:55:30;;;;;;;24.80;22.10;;;20.00;99.90;;;;;;4941701;28;20051;-79
2023/08/19 00:57:56;;;;;;;28.52;23.15;;;20.10;99.90;;;;;;4957317;28;20050;-79
2023/08/19 01:00:22;;;;;;;24.35;20.77;;;19.90;99.90;;;;;;4956897;28;20586;-79
2023/08/19 01:02:48;;;;;;;23.90;20.50;;;19.80;99.90;;;;;;4955618;28;20043;-79
2023/08/19 01:05:15;;;;;;;28.05;22.25;;;19.80;99.90;;;;;;4974032;28;20045;-79
2023/08/19 01:07:47;;;;;;;23.45;20.52;;;19.80;99.90;;;;;;4960892;28;20509;-79
2023/08/19 01:10:22;;;;;;;25.15;22.33;;;19.80;99.90;;;;;;4970541;28;20200;-78
2023/08/19 01:13:16;;;;;;;23.80;19.85;;;19.80;99.90;;;;;;4956500;28;20412;-79
2023/08/19 01:15:55;;;;;;;28.92;18.65;;;19.80;99.90;;;;;;4938272;28;20073;-79
2023/08/19 01:18:23;;;;;;;25.25;21.27;;;19.80;99.90;;;;;;4955639;28;20518;-79
2023/08/19 01:20:50;;;;;;;26.70;21.08;;;19.80;99.90;;;;;;4954859;28;20043;-79
2023/08/19 01:23:23;;;;;;;23.38;19.95;;;19.70;99.90;;;;;;4959458;28;20051;-78
2023/08/19 01:25:50;;;;;;;23.77;21.13;;;19.70;99.90;;;;;;4963304;28;20043;-78
2023/08/19 01:28:19;;;;;;;25.00;20.25;;;19.70;99.90;;;;;;4973932;28;20141;-79
2023/08/19 01:30:45;;;;;;;24.02;19.55;;;19.70;99.90;;;;;;4973913;28;20321;-78
2023/08/19 01:33:11;;;;;;;22.38;19.27;;;19.60;99.90;;;;;;4970743;28;20142;-78
2023/08/19 01:35:41;;;;;;;25.83;21.13;;;19.60;99.90;;;;;;4942806;28;20053;-79
2023/08/19 01:38:11;;;;;;;25.50;20.63;;;19.70;99.90;;;;;;4959008;28;20042;-79
2023/08/19 01:40:38;;;;;;;27.02;20.90;;;19.70;99.90;;;;;;4953411;28;20086;-79
2023/08/19 01:43:08;;;;;;;25.25;20.77;;;19.70;99.90;;;;;;4970080;28;20041;-79
2023/08/19 01:45:34;;;;;;;27.23;21.15;;;19.60;99.90;;;;;;4956535;28;20031;-79
2023/08/19 01:48:04;;;;;;;23.50;20.42;;;19.60;99.90;;;;;;4955934;28;20742;-78
2023/08/19 01:50:29;;;;;;;26.00;23.10;;;19.60;99.90;;;;;;4958415;28;20278;-79
2023/08/19 01:52:55;;;;;;;23.58;20.58;;;19.70;99.90;;;;;;4955322;28;20089;-79
2023/08/19 01:55:22;;;;;;;24.17;21.02;;;19.60;99.90;;;;;;4942739;28;20047;-78
2023/08/19 01:57:47;;;;;;;23.25;20.23;;;19.60;99.90;;;;;;4958294;28;20117;-79
2023/08/19 02:00:17;;;;;;;25.73;21.60;;;19.60;99.90;;;;;;4934896;28;20141;-79
2023/08/19 02:02:42;;;;;;;24.48;21.60;;;19.60;99.90;;;;;;4962572;28;20034;-78
2023/08/19 02:05:12;;;;;;;26.67;20.88;;;19.60;99.90;;;;;;4953471;28;20454;-78
2023/08/19 02:07:38;;;;;;;24.05;20.60;;;19.50;99.90;;;;;;4940125;28;20082;-79
2023/08/19 02:10:05;;;;;;;23.33;19.23;;;19.60;99.90;;;;;;4954265;28;20070;-79
2023/08/19 02:12:31;;;;;;;24.73;20.88;;;19.50;99.90;;;;;;4953769;28;20034;-78
2023/08/19 02:14:56;;;;;;;27.98;22.23;;;19.50;99.90;;;;;;4975165;28;20053;-78
2023/08/19 02:17:22;;;;;;;25.10;20.85;;;19.60;99.90;;;;;;4955364;28;20043;-79
2023/08/19 02:19:47;;;;;;;24.05;21.15;;;19.50;99.90;;;;;;4958560;28;20046;-79
2023/08/19 02:22:13;;;;;;;26.95;22.27;;;19.50;99.90;;;;;;4940856;28;20047;-79
2023/08/19 02:24:39;;;;;;;23.40;20.83;;;19.60;99.90;;;;;;4956830;28;20186;-78
2023/08/19 02:27:04;;;;;;;21.13;18.33;;;19.50;99.90;;;;;;4954856;28;20096;-79
2023/08/19 02:29:30;;;;;;;22.20;19.85;;;19.50;99.90;;;;;;4959886;28;20486;-79
2023/08/19 02:31:56;;;;;;;21.77;19.48;;;19.60;99.90;;;;;;4942902;28;20034;-79
2023/08/19 02:34:24;;;;;;;25.65;20.80;;;19.50;99.90;;;;;;4942810;28;20065;-78
2023/08/19 02:36:50;;;;;;;25.58;20.08;;;19.60;99.90;;;;;;4943054;28;20053;-78
2023/08/19 02:39:16;;;;;;;25.05;21.15;;;19.60;99.90;;;;;;4956953;28;20430;-78
2023/08/19 02:41:41;;;;;;;24.75;21.38;;;19.60;99.90;;;;;;4940259;28;20053;-79
2023/08/19 02:44:07;;;;;;;23.55;20.90;;;19.60;99.90;;;;;;4955264;28;20039;-79
2023/08/19 02:46:32;;;;;;;26.05;21.13;;;19.60;99.90;;;;;;4957637;28;20035;-79
2023/08/19 02:48:58;;;;;;;27.30;21.92;;;19.60;99.90;;;;;;4940512;28;20413;-79
2023/08/19 02:51:27;;;;;;;25.85;23.08;;;19.60;99.90;;;;;;4942148;28;20460;-79
2023/08/19 02:53:52;;;;;;;26.08;22.70;;;19.60;99.90;;;;;;4957330;28;20039;-79
2023/08/19 02:56:18;;;;;;;26.90;21.88;;;19.70;99.90;;;;;;4956619;28;20066;-79
2023/08/19 02:58:43;;;;;;;25.38;22.60;;;19.70;99.90;;;;;;4954215;28;20383;-79
2023/08/19 03:01:12;;;;;;;29.75;23.80;;;19.70;99.90;;;;;;4968705;28;20039;-79
2023/08/19 03:03:38;;;;;;;29.75;24.55;;;19.70;99.90;;;;;;4951404;28;20054;-79
2023/08/19 03:06:03;;;;;;;28.30;22.40;;;19.70;99.90;;;;;;4939421;28;20066;-79
2023/08/19 03:08:32;;;;;;;26.08;22.40;;;19.70;99.90;;;;;;4961069;28;20477;-79
2023/08/19 03:10:58;;;;;;;25.98;22.95;;;19.70;99.90;;;;;;4959850;28;20058;-79
2023/08/19 03:13:23;;;;;;;30.75;23.17;;;19.70;99.90;;;;;;4976635;28;20393;-79
2023/08/19 03:15:49;;;;;;;27.90;22.85;;;19.80;99.90;;;;;;4956766;28;20367;-79
2023/08/19 03:18:15;;;;;;;29.63;23.48;;;19.80;99.90;;;;;;4959690;28;20105;-79
2023/08/19 03:20:42;;;;;;;29.90;22.40;;;19.80;99.90;;;;;;4959978;28;20050;-79
2023/08/19 03:23:07;;;;;;;30.95;24.38;;;19.70;99.90;;;;;;4981847;28;20081;-79
2023/08/19 03:25:36;;;;;;;27.10;23.70;;;19.70;99.90;;;;;;4974366;28;20139;-79
2023/08/19 03:28:02;;;;;;;30.33;24.33;;;19.80;99.90;;;;;;4963572;28;20043;-79
2023/08/19 03:30:27;;;;;;;27.23;22.80;;;19.80;99.90;;;;;;4961784;28;20519;-79
2023/08/19 03:32:53;;;;;;;29.77;23.95;;;19.80;99.90;;;;;;4980132;28;20037;-79
2023/08/19 03:35:19;;;;;;;29.33;24.02;;;19.80;99.90;;;;;;4944457;28;20533;-79
2023/08/19 03:37:44;;;;;;;29.50;24.10;;;19.80;99.90;;;;;;4950338;28;20107;-79
2023/08/19 03:40:10;;;;;;;28.45;23.70;;;19.80;99.90;;;;;;4980078;28;20441;-79
2023/08/19 03:42:37;;;;;;;29.48;22.67;;;19.70;99.90;;;;;;4980652;28;20053;-79
2023/08/19 03:45:03;;;;;;;24.73;22.05;;;19.70;99.90;;;;;;4946463;28;20513;-79
2023/08/19 03:47:28;;;;;;;27.30;22.55;;;19.70;99.90;;;;;;4965567;28;20031;-79
2023/08/19 03:49:54;;;;;;;26.70;22.38;;;19.70;99.90;;;;;;4960158;28;20042;-79
2023/08/19 03:52:23;;;;;;;26.30;21.65;;;19.70;99.90;;;;;;4962971;28;20808;-79
2023/08/19 03:54:50;;;;;;;28.75;22.33;;;19.70;99.90;;;;;;4961857;28;20061;-79
2023/08/19 03:57:16;;;;;;;27.40;21.73;;;19.60;99.90;;;;;;4947071;28;20057;-78
2023/08/19 03:59:41;;;;;;;26.27;21.50;;;19.60;99.90;;;;;;4978812;28;20038;-79
2023/08/19 04:02:07;;;;;;;24.58;21.90;;;19.60;99.90;;;;;;4961252;28;20034;-78
2023/08/19 04:04:36;;;;;;;26.25;21.98;;;19.60;99.90;;;;;;4977191;28;20445;-79
2023/08/19 04:07:01;;;;;;;27.00;21.05;;;19.60;99.90;;;;;;4962514;28;20598;-78
2023/08/19 04:09:27;;;;;;;25.20;20.38;;;19.60;99.90;;;;;;4962549;28;20042;-79
2023/08/19 04:11:55;;;;;;;25.15;20.48;;;19.60;99.90;;;;;;4944775;28;20043;-79
2023/08/19 04:14:20;;;;;;;24.45;21.13;;;19.60;99.90;;;;;;4976143;28;20077;-79
2023/08/19 04:16:46;;;;;;;23.25;20.13;;;19.60;99.90;;;;;;4962253;28;20038;-79
2023/08/19 04:19:11;;;;;;;24.95;20.13;;;19.60;99.90;;;;;;4959817;28;20054;-78
2023/08/19 04:21:37;;;;;;;25.25;20.48;;;19.60;99.90;;;;;;4961995;28;20484;-79
2023/08/19 04:24:03;;;;;;;22.80;19.55;;;19.60;99.90;;;;;;4958690;28;20084;-79
2023/08/19 04:26:29;;;;;;;25.88;20.13;;;19.60;99.90;;;;;;4960159;28;20042;-77
2023/08/19 04:28:54;;;;;;;22.75;19.30;;;19.60;99.90;;;;;;4945458;28;20065;-79
2023/08/19 04:31:20;;;;;;;22.35;18.80;;;19.60;99.90;;;;;;4975256;28;20429;-79
2023/08/19 04:33:58;;;;;;;24.13;19.60;;;19.60;99.90;;;;;;4943376;28;20450;-79
2023/08/19 04:36:24;;;;;;;24.42;19.00;;;19.60;99.90;;;;;;4961403;28;20508;-78
2023/08/19 04:38:50;;;;;;;24.90;19.13;;;19.70;99.90;;;;;;4964402;28;20109;-87
2023/08/19 04:41:24;;;;;;;21.55;18.40;;;19.70;99.90;;;;;;4981038;28;20043;-80
2023/08/19 04:43:49;;;;;;;23.17;19.35;;;19.70;99.90;;;;;;4951497;28;20501;-78
2023/08/19 04:46:15;;;;;;;22.35;18.33;;;19.80;99.90;;;;;;4983050;28;20259;-78
2023/08/19 04:48:41;;;;;;;25.73;18.55;;;19.80;99.90;;;;;;4953188;28;20042;-79
2023/08/19 04:51:07;;;;;;;20.42;18.15;;;19.80;99.90;;;;;;4973415;28;20069;-86
2023/08/19 04:53:35;;;;;;;20.33;18.05;;;19.80;99.90;;;;;;4973795;28;20171;-86
2023/08/19 04:56:03;;;;;;;20.95;18.70;;;19.90;99.90;;;;;;4962009;28;20042;-87
2023/08/19 04:58:32;;;;;;;20.52;17.52;;;20.00;99.90;;;;;;4965101;28;20086;-87
2023/08/19 05:00:58;;;;;;;21.25;17.60;;;20.00;99.90;;;;;;4980624;28;20058;-86
2023/08/19 05:03:23;;;;;;;20.23;17.10;;;20.10;99.90;;;;;;4960151;28;20046;-87
2023/08/19 05:05:50;;;;;;;18.20;16.27;;;20.20;99.90;;;;;;4945655;28;20064;-86
2023/08/19 05:08:15;;;;;;;22.73;17.20;;;20.30;99.90;;;;;;4972342;28;20046;-85
2023/08/19 05:10:41;;;;;;;19.40;16.48;;;20.40;99.90;;;;;;4958452;28;20133;-86
2023/08/19 05:13:07;;;;;;;18.45;15.85;;;20.50;99.90;;;;;;4975822;28;20501;-84
2023/08/19 05:15:32;;;;;;;19.38;16.45;;;20.60;99.90;;;;;;4946165;28;20042;-87
2023/08/19 05:17:58;;;;;;;18.27;15.60;;;20.60;99.90;;;;;;4946328;28;20054;-84
2023/08/19 05:20:24;;;;;;;19.67;15.75;;;20.70;99.90;;;;;;4961303;28;20126;-85
2023/08/19 05:22:49;;;;;;;17.38;15.43;;;20.70;99.90;;;;;;4978333;28;20042;-87
2023/08/19 05:25:15;;;;;;;19.02;14.85;;;20.70;99.90;;;;;;4960845;28;20418;-82
2023/08/19 05:27:40;;;;;;;19.20;14.50;;;20.70;99.90;;;;;;4959695;28;20576;-88
2023/08/19 05:30:07;;;;;;;16.73;14.65;;;20.70;99.90;;;;;;4956901;28;20544;-86
2023/08/19 05:32:33;;;;;;;17.73;14.57;;;20.70;99.90;;;;;;4963989;28;20645;-84
2023/08/19 05:34:59;;;;;;;17.73;14.45;;;20.80;99.90;;;;;;4967973;28;20042;-89
2023/08/19 05:37:25;;;;;;;18.13;13.75;;;20.80;99.90;;;;;;4959268;28;20050;-88
2023/08/19 05:39:50;;;;;;;16.30;13.75;;;20.90;99.90;;;;;;4961706;28;20042;-86
2023/08/19 05:42:16;;;;;;;16.13;13.68;;;20.90;99.90;;;;;;4947996;28;20478;-87
2023/08/19 05:44:42;;;;;;;18.02;13.70;;;20.90;99.90;;;;;;4959562;28;20097;-88
2023/08/19 05:47:09;;;;;;;16.90;12.57;;;20.90;99.90;;;;;;4960100;28;20413;-88
2023/08/19 05:49:35;;;;;;;15.38;13.50;;;21.00;99.90;;;;;;4945423;28;20031;-87
2023/08/19 05:52:01;;;;;;;15.30;13.13;;;21.10;99.90;;;;;;4961641;28;20117;-87
2023/08/19 05:54:27;;;;;;;15.80;12.50;;;21.10;99.90;;;;;;4978017;28;20100;-88
2023/08/19 05:56:55;;;;;;;15.50;12.88;;;21.20;99.90;;;;;;4960720;28;20522;-88
2023/08/19 05:59:21;;;;;;;14.05;12.23;;;21.30;99.90;;;;;;4963697;28;20086;-88
2023/08/19 06:01:46;;;;;;;13.60;11.65;;;21.40;99.90;;;;;;4960778;28;20117;-88
2023/08/19 06:04:13;;;;;;;14.27;12.15;;;21.40;99.90;;;;;;4975313;28;20037;-88
2023/08/19 06:06:38;;;;;;;14.05;11.52;;;21.50;99.90;;;;;;4962805;28;20082;-88
2023/08/19 06:09:09;;;;;;;16.80;11.88;;;21.60;99.90;;;;;;4944403;28;20065;-89
2023/08/19 06:11:50;;;;;;;13.05;11.65;;;21.60;99.90;;;;;;4942688;28;20042;-88
2023/08/19 06:14:16;;;;;;;13.82;11.38;;;21.80;99.90;;;;;;4975013;28;20120;-86
2023/08/19 06:16:42;;;;;;;13.25;11.65;;;21.90;99.90;;;;;;4986267;28;20099;-89
2023/08/19 06:19:12;;;;;;;13.15;10.77;;;21.90;99.90;;;;;;4967172;28;20137;-86
2023/08/19 06:21:38;;;;;;;13.18;10.50;;;22.00;99.90;;;;;;4947397;28;20541;-89
2023/08/19 06:24:04;;;;;;;11.65;10.05;;;22.00;99.90;;;;;;4953543;28;20489;-88
2023/08/19 06:26:30;;;;;;;12.15;10.32;;;22.00;99.90;;;;;;4979117;28;20149;-89
2023/08/19 06:28:56;;;;;;;12.13;9.18;;;22.00;99.90;;;;;;4981367;28;20545;-89
2023/08/19 06:31:22;;;;;;;13.15;9.48;;;22.10;99.90;;;;;;4982562;28;20134;-89
2023/08/19 06:33:49;;;;;;;11.52;9.93;;;22.20;99.90;;;;;;4960672;28;20042;-89
2023/08/19 06:36:20;;;;;;;12.32;10.18;;;22.30;99.90;;;;;;4974355;28;20053;-89
2023/08/19 06:38:50;;;;;;;14.70;9.50;;;22.30;99.90;;;;;;4959260;28;20532;-87
2023/08/19 06:41:20;;;;;;;10.95;8.90;;;22.20;99.90;;;;;;4954180;28;20101;-87
2023/08/19 06:43:50;;;;;;;10.95;9.00;;;22.20;99.90;;;;;;4977376;28;20046;-86
2023/08/19 06:46:16;;;;;;;12.90;9.70;;;22.20;99.90;;;;;;4974230;28;20054;-86
2023/08/19 06:48:42;;;;;;;10.90;9.70;;;22.20;99.90;;;;;;4961526;28;20125;-85
2023/08/19 06:51:09;;;;;;;11.75;9.80;;;22.20;99.90;;;;;;4971517;28;20070;-84
2023/08/19 06:53:35;;;;;;;13.48;9.95;;;22.20;99.90;;;;;;4944594;28;20042;-87
2023/08/19 06:56:04;;;;;;;10.80;9.70;;;22.10;99.90;;;;;;4960857;28;20048;-85
2023/08/19 06:58:34;;;;;;;11.32;9.40;;;22.20;99.90;;;;;;4948978;28;20132;-86
2023/08/19 07:01:03;;;;;;;14.80;10.13;;;22.20;99.90;;;;;;4961777;28;20042;-87
2023/08/19 07:03:32;;;;;;;11.65;9.10;;;22.20;99.90;;;;;;4979258;28;20109;-87
2023/08/19 07:06:00;;;;;;;13.25;8.82;;;22.20;99.90;;;;;;4959924;28;20145;-86
2023/08/19 07:08:30;;;;;;;12.50;9.50;;;22.30;99.90;;;;;;4976152;28;20527;-86
2023/08/19 07:10:58;;;;;;;10.63;9.43;;;22.30;99.90;;;;;;4960929;28;20042;-87
2023/08/19 07:13:24;;;;;;;10.73;9.38;;;22.40;99.90;;;;;;4974324;28;20409;-86
2023/08/19 07:15:56;;;;;;;15.45;9.48;;;22.30;99.90;;;;;;4944878;28;20043;-87
2023/08/19 07:18:26;;;;;;;10.20;8.55;;;22.50;99.90;;;;;;4961647;28;20626;-86
2023/08/19 07:20:54;;;;;;;10.23;9.02;;;22.40;99.90;;;;;;4958577;28;20099;-87
2023/08/19 07:23:23;;;;;;;11.15;8.57;;;22.50;99.90;;;;;;4960955;28;20470;-86
2023/08/19 07:25:53;;;;;;;9.88;8.23;;;22.60;99.90;;;;;;4959343;28;20054;-85
2023/08/19 07:28:21;;;;;;;9.23;8.07;;;22.60;99.90;;;;;;4962951;28;20049;-84
2023/08/19 07:30:47;;;;;;;9.55;7.78;;;22.80;99.90;;;;;;4978773;28;20041;-85
2023/08/19 07:33:13;;;;;;;11.35;7.65;;;22.80;99.90;;;;;;4960114;28;20073;-85
2023/08/19 07:35:39;;;;;;;11.30;7.78;;;22.90;99.90;;;;;;4949255;28;20077;-86
2023/08/19 07:38:06;;;;;;;10.57;8.07;;;23.00;99.90;;;;;;4965102;28;20117;-85
2023/08/19 07:40:32;;;;;;;10.48;7.07;;;23.20;99.90;;;;;;4961824;28;20042;-86
2023/08/19 07:42:57;;;;;;;9.95;7.38;;;23.20;99.90;;;;;;4962532;28;20050;-85
2023/08/19 07:45:23;;;;;;;11.88;8.10;;;23.30;99.90;;;;;;4975662;28;20046;-85
2023/08/19 07:47:49;;;;;;;8.50;6.90;;;23.30;99.90;;;;;;4977091;28;20178;-86
2023/08/19 07:50:14;;;;;;;7.88;7.07;;;23.50;99.90;;;;;;4960939;28;20065;-85
2023/08/19 07:52:40;;;;;;;8.73;7.82;;;23.50;99.90;;;;;;4976415;28;20050;-85
2023/08/19 07:55:07;;;;;;;10.05;7.43;;;23.50;99.90;;;;;;4959264;28;20125;-83
2023/08/19 07:57:32;;;;;;;10.20;7.20;;;23.40;99.90;;;;;;4968527;28;20101;-86
2023/08/19 07:59:58;;;;;;;7.43;6.53;;;23.50;99.90;;;;;;4978568;28;20269;-85
2023/08/19 08:02:24;;;;;;;11.15;7.18;;;23.40;99.90;;;;;;4945545;28;20494;-86
2023/08/19 08:04:49;;;;;;;8.88;7.22;;;23.40;99.90;;;;;;4977546;28;20038;-85
2023/08/19 08:07:15;;;;;;;7.57;6.68;;;23.40;99.90;;;;;;4962135;28;20093;-87
2023/08/19 08:09:43;;;;;;;8.70;7.10;;;23.60;99.90;;;;;;4974905;28;20226;-87
2023/08/19 08:12:09;;;;;;;10.27;6.90;;;23.70;99.90;;;;;;4961238;28;20473;-87
2023/08/19 08:14:35;;;;;;;7.28;6.25;;;23.80;99.90;;;;;;4978598;28;20049;-86
2023/08/19 08:17:00;;;;;;;11.25;7.03;;;23.80;99.90;;;;;;4962372;28;20088;-89
2023/08/19 08:19:26;;;;;;;8.50;6.68;;;23.90;99.90;;;;;;4975975;28;20301;-89
2023/08/19 08:21:53;;;;;;;10.05;6.13;;;24.00;99.90;;;;;;4959208;28;20038;-87
2023/08/19 08:24:20;;;;;;;8.60;6.18;;;24.10;99.90;;;;;;4958509;28;20843;-86
2023/08/19 08:26:45;;;;;;;8.60;6.57;;;24.20;99.90;;;;;;4957992;28;20039;-81
2023/08/19 08:29:11;;;;;;;9.80;6.60;;;24.10;99.90;;;;;;4975787;28;20081;-81
2023/08/19 08:31:37;;;;;;;7.65;5.93;;;24.10;99.90;;;;;;4979840;28;20045;-82
2023/08/19 08:34:02;;;;;;;7.85;6.10;;;24.20;99.90;;;;;;4963173;28;20089;-81
2023/08/19 08:36:28;;;;;;;9.60;5.65;;;24.30;99.90;;;;;;4958519;28;20034;-81
2023/08/19 08:38:54;;;;;;;6.68;5.88;;;24.50;99.90;;;;;;4976828;28;20089;-83
2023/08/19 08:41:23;;;;;;;6.90;5.90;;;24.60;99.90;;;;;;4961312;28;20485;-82
2023/08/19 08:43:49;;;;;;;8.85;6.20;;;24.70;99.90;;;;;;4977678;28;20580;-82
2023/08/19 08:46:16;;;;;;;7.13;5.45;;;24.70;99.90;;;;;;4946990;28;20125;-82
2023/08/19 08:48:44;;;;;;;7.10;5.63;;;24.80;99.90;;;;;;4975958;28;20489;-80
2023/08/19 08:51:13;;;;;;;8.82;5.78;;;24.90;99.90;;;;;;4958729;28;20104;-81
2023/08/19 08:53:39;;;;;;;7.13;5.85;;;24.90;99.90;;;;;;4977248;28;20545;-79
2023/08/19 08:56:06;;;;;;;6.95;5.53;;;25.20;99.90;;;;;;4962372;28;20034;-87
2023/08/19 08:58:32;;;;;;;6.72;5.38;;;25.30;99.90;;;;;;4980237;28;20046;-81
2023/08/19 09:01:00;;;;;;;6.80;5.05;;;25.50;99.90;;;;;;4960514;28;20044;-82
2023/08/19 09:03:30;;;;;;;7.07;5.47;;;25.50;99.90;;;;;;4978311;28;20034;-89
2023/08/19 09:06:00;;;;;;;7.38;5.35;;;25.80;99.90;;;;;;4963632;28;20042;-88
2023/08/19 09:08:34;;;;;;;6.05;5.30;;;25.80;99.90;;;;;;4974930;28;20112;-85
2023/08/19 09:11:02;;;;;;;7.82;5.65;;;26.00;99.90;;;;;;4961469;28;20122;-86
2023/08/19 09:13:29;;;;;;;6.43;5.28;;;26.00;99.90;;;;;;4945946;28;20054;-87
2023/08/19 09:15:55;;;;;;;7.32;5.70;;;26.30;99.90;;;;;;4977517;28;20038;-83
2023/08/19 09:18:22;;;;;;;7.32;5.53;;;26.60;99.90;;;;;;4975176;28;20145;-87
2023/08/19 09:20:49;;;;;;;7.47;5.10;;;27.20;99.90;;;;;;4959818;28;20297;-89
2023/08/19 09:23:15;;;;;;;8.93;5.10;;;27.00;99.90;;;;;;4962544;28;20042;-87
2023/08/19 09:25:40;;;;;;;8.60;5.30;;;26.90;99.90;;;;;;4958333;28;20049;-87
2023/08/19 09:28:07;;;;;;;6.47;5.20;;;26.90;99.90;;;;;;4960540;28;20505;-89
2023/08/19 09:30:36;;;;;;;7.97;4.85;;;26.70;99.90;;;;;;4960128;28;20045;-88
2023/08/19 09:33:02;;;;;;;8.02;5.68;;;26.80;99.90;;;;;;4943156;28;20046;-88
2023/08/19 09:35:38;;;;;;;12.55;5.95;;;26.80;99.90;;;;;;4959177;28;20050;-89
2023/08/19 09:38:04;;;;;;;10.10;5.57;;;26.80;99.90;;;;;;4976065;28;20141;-88
2023/08/19 09:40:31;;;;;;;14.00;6.45;;;26.80;99.90;;;;;;4961610;28;20045;-87
2023/08/19 09:43:00;;;;;;;10.65;6.20;;;26.90;99.90;;;;;;4961854;28;20525;-87
2023/08/19 09:45:27;;;;;;;9.32;6.05;;;26.90;99.90;;;;;;4943319;28;20341;-88
2023/08/19 09:47:56;;;;;;;16.77;8.07;;;27.00;99.90;;;;;;4972130;28;20176;-88
2023/08/19 09:50:23;;;;;;;7.88;5.85;;;27.10;99.90;;;;;;4941977;28;20301;-88
2023/08/19 09:52:56;;;;;;;7.72;5.68;;;27.20;99.90;;;;;;4977382;28;20038;-87
2023/08/19 09:55:30;;;;;;;121.35;29.30;;;27.30;99.90;;;;;;4975610;28;20049;-86
2023/08/19 09:57:56;;;;;;;10.68;6.00;;;27.70;99.90;;;;;;4962718;28;20137;-87
2023/08/19 10:00:23;;;;;;;6.22;4.82;;;28.00;99.90;;;;;;4961260;28;20054;-87
2023/08/19 10:02:49;;;;;;;7.97;5.18;;;27.80;99.90;;;;;;4943393;28;20122;-87
2023/08/19 10:05:15;;;;;;;6.72;4.93;;;27.70;99.90;;;;;;4975688;28;20161;-86
2023/08/19 10:07:49;;;;;;;7.82;4.90;;;27.60;99.90;;;;;;4960012;28;20053;-88
2023/08/19 10:10:16;;;;;;;6.28;5.45;;;27.30;99.90;;;;;;4940611;28;20070;-88
2023/08/19 10:12:44;;;;;;;8.75;5.53;;;26.90;99.90;;;;;;4974208;28;20038;-88
2023/08/19 10:15:13;;;;;;;9.02;5.25;;;26.70;99.90;;;;;;4945637;28;20096;-88
2023/08/19 10:17:43;;;;;;;8.88;5.53;;;26.60;99.90;;;;;;4963991;28;20509;-89
2023/08/19 10:20:17;;;;;;;9.48;5.63;;;26.20;99.90;;;;;;4958163;28;20511;-87
2023/08/19 10:22:47;;;;;;;9.85;6.30;;;25.90;99.90;;;;;;4958640;28;20049;-87
2023/08/19 10:25:14;;;;;;;14.20;5.95;;;25.80;99.90;;;;;;4962113;28;20042;-86
2023/08/19 10:27:42;;;;;;;8.52;5.80;;;25.80;99.90;;;;;;4944955;28;20057;-88
2023/08/19 10:30:23;;;;;;;13.13;6.60;;;25.70;99.90;;;;;;4958190;28;20100;-88
2023/08/19 10:32:48;;;;;;;8.98;6.47;;;25.80;99.90;;;;;;4976233;28;20065;-87
2023/08/19 10:35:14;;;;;;;10.75;6.03;;;25.80;99.90;;;;;;4942232;28;20042;-85
2023/08/19 10:37:45;;;;;;;12.32;7.30;;;25.80;99.90;;;;;;4956104;28;20074;-86
2023/08/19 10:40:12;;;;;;;12.05;7.10;;;25.80;99.90;;;;;;4956755;28;20502;-87
2023/08/19 10:42:41;;;;;;;9.60;6.70;;;25.90;99.90;;;;;;4945247;28;20050;-88
2023/08/19 10:45:33;;;;;;;8.73;7.07;;;26.00;99.90;;;;;;4969515;28;20038;-87
2023/08/19 10:47:59;;;;;;;8.38;7.32;;;26.20;99.90;;;;;;4932548;28;20054;-88
2023/08/19 10:50:25;;;;;;;10.20;6.85;;;26.50;99.90;;;;;;4960152;28;20728;-87
2023/08/19 10:53:01;;;;;;;11.38;7.47;;;26.10;99.90;;;;;;4943835;28;20115;-88
2023/08/19 10:55:27;;;;;;;10.45;7.72;;;26.00;99.90;;;;;;4959350;28;20054;-87
2023/08/19 10:57:53;;;;;;;10.88;7.95;;;26.20;99.90;;;;;;4957780;28;20042;-88
2023/08/19 11:00:31;;;;;;;13.63;8.13;;;26.00;99.90;;;;;;4975427;28;20042;-87
2023/08/19 11:02:57;;;;;;;8.40;7.47;;;25.90;99.90;;;;;;4974179;28;20501;-87
2023/08/19 11:05:26;;;;;;;12.00;7.88;;;25.80;99.90;;;;;;4940397;28;20078;-87
2023/08/19 11:07:52;;;;;;;10.90;7.57;;;25.60;99.90;;;;;;4971129;28;20050;-88
2023/08/19 11:10:19;;;;;;;11.23;7.57;;;25.60;99.90;;;;;;4955632;28;20593;-88
2023/08/19 11:12:48;;;;;;;9.70;7.45;;;25.80;99.90;;;;;;4943779;28;20042;-87
2023/08/19 11:15:23;;;;;;;10.32;7.97;;;25.80;99.90;;;;;;4958165;28;20082;-87
2023/08/19 11:17:48;;;;;;;11.38;8.13;;;26.00;99.90;;;;;;4955349;28;20152;-87
2023/08/19 11:20:15;;;;;;;11.43;7.80;;;26.40;99.90;;;;;;4943238;28;20109;-86
2023/08/19 11:22:45;;;;;;;11.57;8.02;;;26.70;99.90;;;;;;4977297;28;20093;-86
2023/08/19 11:25:14;;;;;;;12.32;8.35;;;26.80;99.90;;;;;;4939806;28;20046;-88
2023/08/19 11:27:40;;;;;;;14.23;8.95;;;27.20;99.90;;;;;;4974246;28;20041;-87
2023/08/19 11:30:09;;;;;;;8.77;7.70;;;27.30;99.90;;;;;;4956799;28;20045;-86
2023/08/19 11:32:35;;;;;;;14.18;8.68;;;27.60;99.90;;;;;;4960272;28;20041;-87
2023/08/19 11:35:01;;;;;;;14.10;8.38;;;28.00;99.90;;;;;;4960644;28;20417;-87
2023/08/19 11:37:30;;;;;;;12.35;7.90;;;28.10;99.90;;;;;;4953219;28;20057;-87
2023/08/19 11:39:57;;;;;;;10.65;7.53;;;28.00;99.90;;;;;;4971557;28;20041;-87
2023/08/19 11:42:27;;;;;;;11.32;8.00;;;27.90;99.90;;;;;;4961216;28;20057;-86
2023/08/19 11:44:55;;;;;;;9.20;8.30;;;27.60;99.90;;;;;;4943134;28;20800;-87
2023/08/19 11:47:21;;;;;;;11.20;8.55;;;27.90;99.90;;;;;;4949622;28;20050;-87
2023/08/19 11:49:47;;;;;;;13.00;8.93;;;27.70;99.90;;;;;;4942182;28;20382;-88
2023/08/19 11:52:21;;;;;;;13.90;8.20;;;27.80;99.90;;;;;;4947897;28;20448;-86
2023/08/19 11:55:03;;;;;;;;;;;28.40;99.90;;;;;;4977885;28;20083;-87
2023/08/19 11:57:38;;;;;;;13.32;8.93;;;28.70;99.90;;;;;;4949384;28;20251;-86
2023/08/19 12:00:08;;;;;;;12.70;10.45;;;28.90;99.90;;;;;;4978704;28;20034;-86
2023/08/19 12:02:34;;;;;;;13.02;9.75;;;28.70;99.90;;;;;;4966189;28;20038;-87
2023/08/19 12:04:59;;;;;;;14.98;11.10;;;28.80;99.90;;;;;;4945969;28;20038;-87
2023/08/19 12:07:29;;;;;;;14.48;10.98;;;28.60;99.90;;;;;;4948330;28;20059;-86
2023/08/19 12:09:59;;;;;;;13.90;11.68;;;28.60;99.90;;;;;;4959435;28;20050;-87
2023/08/19 12:12:25;;;;;;;17.33;13.02;;;28.40;99.90;;;;;;4962836;28;20128;-86
2023/08/19 12:14:51;;;;;;;17.08;13.00;;;28.30;99.90;;;;;;4945360;28;20082;-86
2023/08/19 12:17:17;;;;;;;16.40;13.23;;;28.40;99.90;;;;;;4946475;28;20480;-87
2023/08/19 12:19:45;;;;;;;16.48;14.77;;;28.50;99.90;;;;;;4944713;28;20215;-86
2023/08/19 12:22:11;;;;;;;18.88;14.25;;;28.10;99.90;;;;;;4976731;28;20043;-86
2023/08/19 12:24:37;;;;;;;18.85;15.55;;;28.20;99.90;;;;;;4958147;28;20318;-87
2023/08/19 12:27:03;;;;;;;21.50;16.58;;;27.90;99.90;;;;;;4958226;28;20049;-87
2023/08/19 12:29:29;;;;;;;21.40;16.23;;;27.90;99.90;;;;;;4962071;28;20045;-88
2023/08/19 12:31:54;;;;;;;18.75;16.15;;;27.50;99.90;;;;;;4978152;28;20042;-85
2023/08/19 12:34:20;;;;;;;21.60;18.20;;;27.00;99.90;;;;;;4956257;28;20626;-87